createdAt,value
2022-12-13T00:01:51.046Z,100753.38
2022-12-13T00:04:57.054Z,100739.75
2022-12-13T00:08:01.113Z,100759.31
2022-12-13T00:11:08.097Z,100755.16
2022-12-13T00:14:14.820Z,100754.22
2022-12-13T00:17:19.191Z,100746.56
2022-12-13T00:20:22.509Z,100747.34
2022-12-13T00:23:26.110Z,100737.09
2022-12-13T00:26:32.604Z,100737.09
2022-12-13T00:29:35.864Z,100737.97
2022-12-13T00:32:40.226Z,100730.31
2022-12-13T00:35:43.649Z,100721.75
2022-12-13T00:38:46.821Z,100718.38
2022-12-13T00:41:50.235Z,100720.09
2022-12-13T00:44:55.830Z,100710.75
2022-12-13T00:48:01.942Z,100709.09
2022-12-13T00:51:08.603Z,100708.19
2022-12-13T00:54:11.993Z,100703.88
2022-12-13T00:57:15.061Z,100704.72
2022-12-13T01:00:18.480Z,100707.28
2022-12-13T01:03:25.520Z,100703.03
2022-12-13T01:06:34.089Z,100706.44
2022-12-13T01:09:39.487Z,100707.22
2022-12-13T01:12:42.961Z,100711.56
2022-12-13T01:15:48.032Z,100714.94
2022-12-13T01:18:52.588Z,100714.84
2022-12-13T01:21:55.648Z,100704.72
2022-12-13T01:24:58.636Z,100709.00
2022-12-13T01:28:01.678Z,100715.06
2022-12-13T01:31:08.212Z,100709.91
2022-12-13T01:34:14.017Z,100716.66
2022-12-13T01:37:17.929Z,100702.97
2022-12-13T01:40:22.865Z,100708.19
2022-12-13T01:43:51.856Z,100716.66
2022-12-13T01:46:55.094Z,100712.47
2022-12-13T01:50:04.339Z,100712.38
2022-12-13T01:53:09.300Z,100716.66
2022-12-13T01:56:18.117Z,100710.72
2022-12-13T01:59:22.961Z,100712.34
2022-12-13T02:02:26.046Z,100707.28
2022-12-13T02:05:37.444Z,100702.22
2022-12-13T02:08:43.883Z,100699.66
2022-12-13T02:11:47.392Z,100703.03
2022-12-13T02:14:50.630Z,100692.94
2022-12-13T02:18:19.342Z,100701.41
2022-12-13T02:21:34.545Z,100687.00
2022-12-13T02:25:03.631Z,100691.22
2022-12-13T02:28:31.807Z,100696.38
2022-12-13T02:31:45.749Z,100697.09
2022-12-13T02:34:55.612Z,100692.88
2022-12-13T02:38:04.822Z,100686.09
2022-12-13T02:41:16.305Z,100675.78
2022-12-13T02:44:23.853Z,100692.09
2022-12-13T02:47:30.275Z,100683.59
2022-12-13T02:50:34.647Z,100684.47
2022-12-13T02:53:39.730Z,100679.41
2022-12-13T02:56:42.668Z,100669.94
2022-12-13T02:59:45.750Z,100674.25
2022-12-13T03:03:08.272Z,100674.25
2022-12-13T03:06:33.684Z,100675.13
2022-12-13T03:09:50.405Z,100673.31
2022-12-13T03:13:15.825Z,100675.88
2022-12-13T03:16:29.626Z,100676.78
2022-12-13T03:19:34.272Z,100674.22
2022-12-13T03:22:37.564Z,100670.91
2022-12-13T03:25:41.160Z,100672.50
2022-12-13T03:28:44.166Z,100666.56
2022-12-13T03:31:47.537Z,100667.41
2022-12-13T03:35:00.662Z,100667.34
2022-12-13T03:38:05.509Z,100668.97
2022-12-13T03:41:12.447Z,100654.53
2022-12-13T03:44:15.762Z,100660.47
2022-12-13T03:47:18.947Z,100663.00
2022-12-13T03:50:27.050Z,100663.00
2022-12-13T03:53:33.521Z,100653.69
2022-12-13T03:56:37.246Z,100644.34
2022-12-13T03:59:40.640Z,100646.13
2022-12-13T04:02:43.663Z,100646.97
2022-12-13T04:05:49.296Z,100646.06
2022-12-13T04:08:52.962Z,100646.91
2022-12-13T04:12:13.900Z,100648.53
2022-12-13T04:15:17.551Z,100643.47
2022-12-13T04:18:21.202Z,100645.16
2022-12-13T04:21:28.226Z,100648.59
2022-12-13T04:24:32.313Z,100645.19
2022-12-13T04:27:38.344Z,100648.44
2022-12-13T04:30:41.341Z,100651.03
2022-12-13T04:33:44.310Z,100649.41
2022-12-13T04:36:48.597Z,100652.75
2022-12-13T04:39:51.566Z,100652.75
2022-12-13T04:43:04.005Z,100649.28
2022-12-13T04:46:08.591Z,100649.31
2022-12-13T04:49:11.628Z,100651.88
2022-12-13T04:52:21.973Z,100659.72
2022-12-13T04:55:25.771Z,100661.41
2022-12-13T04:58:28.887Z,100662.94
2022-12-13T05:01:31.943Z,100663.13
2022-12-13T05:04:36.197Z,100669.91
2022-12-13T05:07:42.132Z,100656.28
2022-12-13T05:10:45.845Z,100653.78
2022-12-13T05:13:48.930Z,100664.78
2022-12-13T05:16:55.440Z,100657.97
2022-12-13T05:19:58.463Z,100662.22
2022-12-13T05:23:03.009Z,100660.50
2022-12-13T05:26:06.605Z,100658.88
2022-12-13T05:29:09.695Z,100660.63
2022-12-13T05:32:12.792Z,100660.56
2022-12-13T05:35:23.576Z,100667.34
2022-12-13T05:38:28.311Z,100668.31
2022-12-13T05:41:35.067Z,100661.50
2022-12-13T05:44:38.093Z,100660.56
2022-12-13T05:47:41.229Z,100653.69
2022-12-13T05:50:44.185Z,100655.38
2022-12-13T05:53:53.162Z,100653.69
2022-12-13T05:56:56.815Z,100652.84
2022-12-13T06:00:00.028Z,100652.00
2022-12-13T06:03:03.104Z,100660.47
2022-12-13T06:06:08.539Z,100651.88
2022-12-13T06:09:12.827Z,100650.19
2022-12-13T06:12:31.718Z,100659.47
2022-12-13T06:15:35.603Z,100659.47
2022-12-13T06:18:48.347Z,100667.91
2022-12-13T06:21:55.867Z,100666.25
2022-12-13T06:25:01.551Z,100674.81
2022-12-13T06:28:05.031Z,100673.97
2022-12-13T06:31:08.070Z,100677.41
2022-12-13T06:34:14.307Z,100679.19
2022-12-13T06:37:20.588Z,100679.19
2022-12-13T06:40:26.433Z,100688.56
2022-12-13T06:43:31.786Z,100680.06
2022-12-13T06:46:35.265Z,100682.63
2022-12-13T06:49:38.394Z,100689.44
2022-12-13T06:52:41.374Z,100688.56
2022-12-13T06:55:45.943Z,100698.91
2022-12-13T06:58:48.948Z,100698.88
2022-12-13T07:01:52.002Z,100695.47
2022-12-13T07:04:56.424Z,100699.78
2022-12-13T07:07:59.525Z,100704.03
2022-12-13T07:11:05.321Z,100715.91
2022-12-13T07:14:08.838Z,100711.69
2022-12-13T07:17:11.781Z,100711.69
2022-12-13T07:20:15.842Z,100717.72
2022-12-13T07:23:18.851Z,100714.38
2022-12-13T07:30:53.275Z,100714.25
2022-12-13T07:33:56.359Z,100723.66
2022-12-13T07:36:59.411Z,100720.34
2022-12-13T07:40:04.753Z,100725.34
2022-12-13T07:43:11.851Z,100723.59
2022-12-13T07:46:15.432Z,100723.59
2022-12-13T07:49:18.408Z,100724.53
2022-12-13T07:52:21.333Z,100733.94
2022-12-13T07:55:33.559Z,100732.28
2022-12-13T07:58:42.057Z,100734.81
2022-12-13T08:01:45.011Z,100734.00
2022-12-13T08:04:54.653Z,100730.56
2022-12-13T08:07:58.102Z,100735.50
2022-12-13T08:11:06.283Z,100728.63
2022-12-13T08:14:17.003Z,100738.81
2022-12-13T08:17:20.493Z,100743.09
2022-12-13T08:20:23.563Z,100743.16
2022-12-13T08:23:26.690Z,100734.59
2022-12-13T08:26:29.711Z,100745.59
2022-12-13T08:29:36.739Z,100743.91
2022-12-13T08:32:39.714Z,100746.47
2022-12-13T08:35:58.826Z,100757.63
2022-12-13T08:39:03.022Z,100753.44
2022-12-13T08:42:14.726Z,100764.75
2022-12-13T08:45:23.860Z,100757.91
2022-12-13T08:48:26.833Z,100756.16
2022-12-13T08:51:35.602Z,100768.13
2022-12-13T08:54:38.780Z,100767.13
2022-12-13T08:57:42.897Z,100766.25
2022-12-13T09:00:48.272Z,100770.38
2022-12-13T09:03:51.232Z,100768.63
2022-12-13T09:06:55.188Z,100761.78
2022-12-13T09:09:58.278Z,100770.16
2022-12-13T09:13:11.659Z,100769.31
2022-12-13T09:16:24.417Z,100766.91
2022-12-13T09:19:27.815Z,100761.72
2022-12-13T09:22:33.756Z,100763.59
2022-12-13T09:25:37.830Z,100773.59
2022-12-13T09:28:42.172Z,100765.75
2022-12-13T09:31:52.923Z,100768.19
2022-12-13T09:34:56.366Z,100774.31
2022-12-13T09:37:59.340Z,100769.19
2022-12-13T09:41:19.577Z,100766.56
2022-12-13T09:44:30.828Z,100763.25
2022-12-13T09:47:47.136Z,100769.25
2022-12-13T09:50:58.538Z,100764.09
2022-12-13T09:54:20.519Z,100764.78
2022-12-13T09:57:30.977Z,100759.50
2022-12-13T10:00:37.300Z,100756.09
2022-12-13T10:03:46.528Z,100762.97
2022-12-13T10:06:53.165Z,100762.28
2022-12-13T10:10:01.545Z,100760.47
2022-12-13T10:13:14.225Z,100762.84
2022-12-13T10:16:27.120Z,100762.06
2022-12-13T10:19:44.551Z,100767.22
2022-12-13T10:23:08.019Z,100759.59
2022-12-13T10:26:23.905Z,100762.06
2022-12-13T10:29:28.038Z,100768.19
2022-12-13T10:32:37.724Z,100761.53
2022-12-13T10:35:42.425Z,100753.66
2022-12-13T10:38:47.214Z,100755.59
2022-12-13T10:41:55.881Z,100758.97
2022-12-13T10:45:23.531Z,100754.75
2022-12-13T10:48:38.919Z,100750.28
2022-12-13T10:51:43.582Z,100740.22
2022-12-13T10:54:49.539Z,100746.94
2022-12-13T10:57:55.399Z,100744.03
2022-12-13T11:01:12.412Z,100748.09
2022-12-13T11:04:27.841Z,100746.38
2022-12-13T11:07:34.574Z,100740.47
2022-12-13T11:10:38.869Z,100737.88
2022-12-13T11:13:47.580Z,100736.25
2022-12-13T11:17:18.141Z,100748.22
2022-12-13T11:20:25.163Z,100743.19
2022-12-13T11:23:34.540Z,100742.53
2022-12-13T11:26:43.050Z,100742.31
2022-12-13T11:30:09.718Z,100736.25
2022-12-13T11:33:25.394Z,100740.34
2022-12-13T11:36:39.651Z,100732.88
2022-12-13T11:39:51.248Z,100731.09
2022-12-13T11:43:00.474Z,100733.50
2022-12-13T11:46:12.220Z,100730.00
2022-12-13T11:49:19.073Z,100734.16
2022-12-13T11:52:28.415Z,100732.47
2022-12-13T11:55:40.228Z,100734.84
2022-12-13T11:59:08.522Z,100727.13
2022-12-13T12:02:21.475Z,100727.16
2022-12-13T12:05:31.776Z,100729.03
2022-12-13T12:08:39.786Z,100734.97
2022-12-13T12:11:55.284Z,100729.50
2022-12-13T12:15:05.019Z,100735.66
2022-12-13T12:18:20.907Z,100742.81
2022-12-13T12:22:04.842Z,100733.31
2022-12-13T12:25:24.736Z,100739.16
2022-12-13T12:28:44.182Z,100733.06
2022-12-13T12:31:56.657Z,100734.75
2022-12-13T12:35:19.450Z,100735.13
2022-12-13T12:38:53.883Z,100741.97
2022-12-13T12:42:24.910Z,100725.50
2022-12-13T12:45:56.972Z,100736.50
2022-12-13T12:49:45.646Z,100733.06
2022-12-13T12:53:01.221Z,100729.34
2022-12-13T12:56:26.548Z,100725.22
2022-12-13T12:59:40.417Z,100723.47
2022-12-13T13:02:56.035Z,100729.63
2022-12-13T13:06:10.842Z,100745.91
2022-12-13T13:09:24.469Z,100742.47
2022-12-13T13:12:30.796Z,100744.44
2022-12-13T13:15:56.811Z,100745.91
2022-12-13T13:19:02.194Z,100739.75
2022-12-13T13:22:06.450Z,100740.47
2022-12-13T13:25:32.851Z,100737.78
2022-12-13T13:28:35.810Z,100738.44
2022-12-13T13:32:01.220Z,100735.94
2022-12-13T13:35:54.252Z,100740.34
2022-12-13T13:39:01.136Z,100738.75
2022-12-13T13:42:19.312Z,100739.47
2022-12-13T13:45:24.152Z,100739.38
2022-12-13T13:48:53.683Z,100739.28
2022-12-13T13:52:26.626Z,100738.22
2022-12-13T13:55:49.632Z,100737.41
2022-12-13T13:59:47.008Z,100740.69
2022-12-13T14:03:40.892Z,100743.25
2022-12-13T14:07:40.559Z,100744.91
2022-12-13T14:10:58.657Z,100730.63
2022-12-13T14:14:42.878Z,100731.41
2022-12-13T14:18:39.394Z,100734.78
2022-12-13T14:21:57.628Z,100727.16
2022-12-13T14:25:26.949Z,100732.22
2022-12-13T14:28:43.805Z,100733.13
2022-12-13T14:31:49.602Z,100732.28
2022-12-13T14:34:54.105Z,100728.91
2022-12-13T14:37:59.629Z,100738.28
2022-12-13T14:41:05.953Z,100735.53
2022-12-13T14:44:15.875Z,100740.78
2022-12-13T14:47:20.008Z,100742.41
2022-12-13T14:50:26.126Z,100738.03
2022-12-13T14:53:34.390Z,100744.75
2022-12-13T14:56:56.467Z,100741.66
2022-12-13T15:00:21.701Z,100739.03
2022-12-13T15:03:28.426Z,100733.91
2022-12-13T15:06:31.983Z,100737.34
2022-12-13T15:09:40.891Z,100740.84
2022-12-13T15:12:46.484Z,100737.69
2022-12-13T15:15:55.621Z,100731.59
2022-12-13T15:19:10.992Z,100732.47
2022-12-13T15:22:17.137Z,100732.53
2022-12-13T15:25:24.942Z,100733.41
2022-12-13T15:28:39.604Z,100740.13
2022-12-13T15:31:42.685Z,100739.41
2022-12-13T15:34:52.839Z,100741.88
2022-12-13T15:37:56.339Z,100746.94
2022-12-13T15:41:02.680Z,100742.75
2022-12-13T15:44:18.122Z,100742.00
2022-12-13T15:47:28.459Z,100749.69
2022-12-13T15:50:36.062Z,100750.47
2022-12-13T15:53:39.916Z,100742.75
2022-12-13T15:57:01.735Z,100739.31
2022-12-13T16:00:29.691Z,100736.72
2022-12-13T16:03:42.739Z,100737.63
2022-12-13T16:06:52.654Z,100732.59
2022-12-13T16:09:56.758Z,100734.41
2022-12-13T16:13:08.085Z,100729.28
2022-12-13T16:16:28.494Z,100726.81
2022-12-13T16:19:32.192Z,100730.25
2022-12-13T16:22:35.166Z,100726.09
2022-12-13T16:25:38.216Z,100734.09
2022-12-13T16:28:41.430Z,100725.72
2022-12-13T16:31:46.161Z,100725.06
2022-12-13T16:34:49.303Z,100716.66
2022-12-13T16:37:53.680Z,100724.41
2022-12-13T16:41:08.373Z,100722.75
2022-12-13T16:44:22.846Z,100726.19
2022-12-13T16:47:40.360Z,100720.22
2022-12-13T16:50:57.838Z,100719.56
2022-12-13T16:54:01.255Z,100725.47
2022-12-13T16:57:04.407Z,100711.91
2022-12-13T17:00:11.531Z,100717.94
2022-12-13T17:03:16.390Z,100718.88
2022-12-13T17:06:24.734Z,100719.78
2022-12-13T17:09:27.723Z,100717.25
2022-12-13T17:12:31.468Z,100709.69
2022-12-13T17:15:34.603Z,100712.34
2022-12-13T17:18:41.841Z,100715.06
2022-12-13T17:21:44.853Z,100714.47
2022-12-13T17:24:47.966Z,100716.41
2022-12-13T17:27:51.084Z,100712.16
2022-12-13T17:30:55.443Z,100718.38
2022-12-13T17:33:59.961Z,100713.31
2022-12-13T17:37:07.093Z,100709.94
2022-12-13T17:40:13.300Z,100709.22
2022-12-13T17:43:26.278Z,100704.25
2022-12-13T17:46:36.204Z,100705.88
2022-12-13T17:49:40.543Z,100705.16
2022-12-13T17:52:43.559Z,100695.78
2022-12-13T17:55:55.277Z,100690.06
2022-12-13T17:58:58.235Z,100691.94
2022-12-13T18:02:01.232Z,100691.97
2022-12-13T18:05:07.082Z,100689.59
2022-12-13T18:08:10.195Z,100692.13
2022-12-13T18:14:37.979Z,100693.81
2022-12-13T18:18:10.020Z,100685.41
2022-12-13T18:21:07.146Z,100690.59
2022-12-13T18:24:11.199Z,100692.47
2022-12-13T18:27:14.202Z,100693.28
2022-12-13T18:30:17.255Z,100683.03
2022-12-13T18:33:20.387Z,100681.50
2022-12-13T18:36:25.985Z,100680.63
2022-12-13T18:39:29.103Z,100681.50
2022-12-13T18:42:32.151Z,100685.03
2022-12-13T18:45:35.501Z,100677.47
2022-12-13T18:48:38.837Z,100678.47
2022-12-13T18:51:43.632Z,100684.47
2022-12-13T18:54:54.190Z,100691.34
2022-12-13T18:57:57.742Z,100687.91
2022-12-13T19:01:01.708Z,100688.84
2022-12-13T19:04:04.754Z,100688.88
2022-12-13T19:07:10.068Z,100688.19
2022-12-13T19:10:13.058Z,100691.63
2022-12-13T19:13:16.301Z,100696.78
2022-12-13T19:16:22.454Z,100691.63
2022-12-13T19:19:25.589Z,100689.91
2022-12-13T19:22:30.414Z,100683.19
2022-12-13T19:25:33.420Z,100684.91
2022-12-13T19:28:36.762Z,100684.88
2022-12-13T19:31:40.386Z,100686.75
2022-12-13T19:34:43.527Z,100686.75
2022-12-13T19:37:48.035Z,100685.03
2022-12-13T19:40:52.592Z,100685.03
2022-12-13T19:43:56.001Z,100686.78
2022-12-13T19:46:59.845Z,100692.72
2022-12-13T19:50:03.054Z,100699.59
2022-12-13T19:53:07.819Z,100694.53
2022-12-13T19:56:13.522Z,100699.69
2022-12-13T19:59:16.657Z,100693.75
2022-12-13T20:02:19.964Z,100696.38
2022-12-13T20:05:23.052Z,100697.22
2022-12-13T20:08:28.049Z,100698.13
2022-12-13T20:11:31.391Z,100702.34
2022-12-13T20:14:34.385Z,100700.59
2022-12-13T20:17:37.561Z,100693.97
2022-12-13T20:21:09.825Z,100688.97
2022-12-13T20:24:06.474Z,100685.59
2022-12-13T20:27:15.399Z,100687.25
2022-12-13T20:30:18.673Z,100683.00
2022-12-13T20:33:21.667Z,100678.72
2022-12-13T20:36:27.518Z,100676.28
2022-12-13T20:39:32.178Z,100678.00
2022-12-13T20:42:35.583Z,100665.31
2022-12-13T20:45:38.717Z,100673.84
2022-12-13T20:48:44.623Z,100679.03
2022-12-13T20:51:47.696Z,100673.94
2022-12-13T20:54:52.031Z,100675.66
2022-12-13T20:57:55.069Z,100675.66
2022-12-13T21:00:58.413Z,100665.47
2022-12-13T21:04:05.296Z,100672.28
2022-12-13T21:07:08.543Z,100667.31
2022-12-13T21:10:13.076Z,100659.66
2022-12-13T21:13:16.050Z,100661.34
2022-12-13T21:16:20.056Z,100658.81
2022-12-13T21:19:25.340Z,100650.41
2022-12-13T21:22:28.290Z,100654.63
2022-12-13T21:25:32.577Z,100641.09
2022-12-13T21:28:35.635Z,100638.56
2022-12-13T21:31:40.455Z,100634.38
2022-12-13T21:34:43.477Z,100630.13
2022-12-13T21:37:48.443Z,100638.69
2022-12-13T21:40:52.801Z,100631.91
2022-12-13T21:43:56.959Z,100633.56
2022-12-13T21:47:15.342Z,100631.06
2022-12-13T21:50:18.516Z,100629.41
2022-12-13T21:53:23.129Z,100622.63
2022-12-13T21:56:47.766Z,100623.50
2022-12-13T21:59:50.855Z,100625.19
2022-12-13T22:02:54.208Z,100622.66
2022-12-13T22:05:57.890Z,100623.50
2022-12-13T22:09:01.078Z,100620.16
2022-12-13T22:12:09.153Z,100615.16
2022-12-13T22:15:14.661Z,100613.41
2022-12-13T22:18:17.580Z,100609.25
2022-12-13T22:21:20.641Z,100610.13
2022-12-13T22:24:23.601Z,100616.94
2022-12-13T22:27:28.242Z,100599.22
2022-12-13T22:30:31.197Z,100597.53
2022-12-13T22:33:34.203Z,100585.72
2022-12-13T22:36:37.355Z,100583.19
2022-12-13T22:39:40.713Z,100581.50
2022-12-13T22:42:48.302Z,100572.19
2022-12-13T22:45:51.699Z,100577.31
2022-12-13T22:48:56.125Z,100569.72
2022-12-13T22:51:59.091Z,100572.28
2022-12-13T22:55:04.931Z,100565.59
2022-12-13T22:58:09.280Z,100564.72
2022-12-13T23:01:16.496Z,100553.69
2022-12-13T23:04:19.588Z,100552.06
2022-12-13T23:07:22.665Z,100543.63
2022-12-13T23:10:43.620Z,100542.81
2022-12-13T23:13:52.612Z,100540.34
2022-12-13T23:16:55.790Z,100542.00
2022-12-13T23:19:58.864Z,100533.53
2022-12-13T23:23:02.056Z,100532.66
2022-12-13T23:26:11.082Z,100528.47
2022-12-13T23:29:18.601Z,100522.59
2022-12-13T23:32:21.610Z,100524.31
2022-12-13T23:35:24.661Z,100515.09
2022-12-13T23:38:28.252Z,100519.31
2022-12-13T23:41:34.078Z,100520.19
2022-12-13T23:44:39.489Z,100510.94
2022-12-13T23:47:42.522Z,100507.56
2022-12-13T23:50:47.196Z,100502.47
2022-12-13T23:53:50.569Z,100505.00
2022-12-13T23:56:53.759Z,100510.91
